Crew | Aerofun Virtual



 METAR AND TAF INFORMATION
METAR FOR LUKK
ADDS - METARS form results

(0322 UTC 23 September 2019)
Data provider http://aviationweather.gov/metar/data/
 
METAR text: LUKK 230300Z 00000KT CAVOK 06/03 Q1016 R26/D NOSIG
Conditions at: LUKK (CHISINAU INTL , MD) observed 0300 UTC 23 September 2019
Temperature: 6.0°C (43°F)
Dewpoint: 3.0°C (37°F) [RH = 81%]
Pressure (altimeter): 30.00 inches Hg (1016.0 mb)
Winds: calm
Visibility: 6 or more miles (10+ km)
Ceiling: ceiling and visibility are OK
Clouds: unknown
Weather: no significant weather observed at this time

METAR text: LUKK 230230Z 01003KT CAVOK 08/05 Q1015 R08/D NOSIG
Conditions at: LUKK (CHISINAU INTL , MD) observed 0230 UTC 23 September 2019
Temperature: 8.0°C (46°F)
Dewpoint: 5.0°C (41°F) [RH = 81%]
Pressure (altimeter): 29.97 inches Hg (1015.0 mb)
Winds: from the N (10 degrees) at 3 MPH (3 knots; 1.5 m/s)
Visibility: 6 or more miles (10+ km)
Ceiling: ceiling and visibility are OK
Clouds: unknown
Weather: no significant weather observed at this time

Forecast for: LUKK (CHISINAU INTL , MD)
Text: TAF LUKK 222320Z 2300/2324 VRB04KT CAVOK
Forecast period: 0000 to 0700 UTC 23 September 2019
Forecast type: FROM: standard forecast or significant change
Winds: variable direction winds at 5 MPH (4 knots; 2.1 m/s)
Visibility: 6 or more miles 10+ km)
Ceiling: unknown
Clouds: missing
Weather: NSW  (no significant weather)
Text: BECMG 2307/2309 17008KT
Forecast period: 0700 to 1600 UTC 23 September 2019
Forecast type: BECOMING: Conditions expected to become as follows by 0900 UTC 23 September 2019
Winds: from the S (170 degrees) at 9 MPH (8 knots; 4.1 m/s)
Visibility: 6 or more miles 10+ km)
Ceiling: unknown
Clouds: missing
Weather: NSW  (no significant weather)
Text: BECMG 2316/2318 08006KT
Forecast period: 1600 UTC 23 September 2019 to 0000 UTC 24 September 2019
Forecast type: BECOMING: Conditions expected to become as follows by 1800 UTC 23 September 2019
Winds: from the E (80 degrees) at 7 MPH (6 knots; 3.1 m/s)
Visibility: 6 or more miles 10+ km)
Ceiling: unknown
Clouds: missing
Weather: NSW  (no significant weather)

 AIRPORT MAP

 RUNWAY INFORMATION
Runway 08 Runway length 11779 ft Runway width 145 ft
Runway elevation 399 ft Runway displaced threshold 0 ft Runway heading 88
Runway 26 Runway length 11779 ft Runway width 145 ft
Runway elevation 279 ft Runway displaced threshold 0 ft Runway heading 268

 AIRPORT FREQUENCIES
Type APP Name APP Frequency 125.9 MHZ
Type ATIS Name ATIS Frequency 133.7 MHZ
Type GND Name GND Frequency 121.8 MHZ
Type TWR Name TWR Frequency 118.1 MHZ

 AIRPORT NEAR NAVIGATION AIDS
Type VOR-DME Name Chisinau Frequency 113700 KHZ